Date,TemperatureHighF,TemperatureAvgF,TemperatureLowF,DewpointHighF,DewpointAvgF,DewpointLowF,HumidityHigh,HumidityAvg,HumidityLow,PressureMaxIn,PressureMinIn,WindSpeedMaxMPH,WindSpeedAvgMPH,GustSpeedMaxMPH,PrecipitationSumIn
2013-2-20,32.2,28.1,25.7,25.8,23.4,21.2,90,83,69,30.12,30.04,0,0,5,0.00
2013-2-21,32.1,24.9,16.4,28.9,23.0,14.0,96,93,83,30.07,29.74,1,0,13,0.00
2013-2-22,58.3,18.2,10.4,20.8,-1.3,-99.9,90,66,18,30.21,29.99,0,-130,4,0.01
2013-2-23,55.0,28.1,11.9,36.6,20.5,9.3,98,76,35,30.19,29.91,0,0,4,0.00
2013-2-24,64.2,37.1,26.2,37.2,27.2,-99.9,84,71,35,29.98,29.74,0,-8,4,0.00
2013-2-25,36.3,33.8,32.3,32.8,31.6,29.0,99,92,82,29.93,29.70,2,0,12,0.11
2013-2-26,50.5,33.0,27.0,34.5,29.6,26.4,99,89,50,29.99,29.75,0,0,3,0.18
2013-2-27,47.6,35.3,27.9,30.0,27.7,25.1,94,76,48,30.18,29.97,0,0,8,0.01
2013-3-6,41.9,39.1,37.3,23.7,22.9,22.5,57,52,46,30.23,30.21,0,0,0,0.00
2013-3-7,71.8,49.7,34.9,27.0,24.6,21.3,68,44,16,30.22,29.93,1,0,15,0.00
2013-4-23,34.2,33.0,32.7,31.3,30.6,29.6,93,90,83,30.00,29.97,2,0,6,0.00
2013-4-24,63.1,46.2,28.6,34.1,30.5,26.8,94,61,27,30.04,29.95,6,1,10,0.01
2013-4-25,73.8,59.7,41.9,43.1,36.1,32.8,79,43,24,30.04,29.78,8,2,12,0.00
2013-4-26,60.8,53.7,51.3,51.1,47.2,33.5,96,81,36,29.89,29.81,11,2,13,0.28
2013-4-27,70.2,55.8,49.5,55.8,51.4,49.2,100,86,59,29.89,29.77,4,0,5,0.00
2013-4-28,84.4,65.3,47.8,60.3,53.6,47.6,100,71,37,29.77,29.54,6,1,11,0.07
2013-4-29,91.2,74.5,58.8,62.1,57.2,52.0,93,58,32,29.54,29.38,11,3,12,0.00
2013-4-30,89.4,76.2,64.4,61.7,57.1,52.3,78,53,34,29.55,29.43,11,4,14,0.24
2013-5-1,79.3,62.1,41.2,63.4,52.3,36.3,85,71,52,29.99,29.50,8,3,11,0.00
2013-5-2,53.4,41.7,35.2,38.8,34.2,28.8,100,78,41,30.17,29.96,11,4,11,0.64
2013-5-3,63.9,49.4,36.5,34.1,30.8,26.6,82,53,26,30.09,29.75,8,2,10,0.00
2013-5-4,49.8,45.2,42.8,41.5,36.5,30.2,87,72,54,29.85,29.67,10,3,13,0.00
2013-5-5,64.9,51.8,43.3,52.0,46.2,40.7,95,82,60,29.91,29.83,4,1,8,0.00
2013-5-6,73.9,56.7,44.6,54.3,49.4,43.5,100,79,48,29.90,29.77,4,0,5,0.00
2013-5-7,66.2,56.2,51.4,55.8,51.5,49.2,93,85,67,29.83,29.78,6,0,7,0.00
2013-5-8,79.9,69.5,62.2,63.8,59.3,54.4,88,71,57,29.70,29.54,7,1,10,0.09
2013-5-9,81.1,67.9,57.6,61.0,57.8,55.0,96,72,46,29.76,29.56,8,1,16,0.07
2013-5-10,77.5,64.2,55.2,58.1,54.0,49.6,93,72,44,29.85,29.75,4,1,8,0.00
2013-5-11,75.9,62.7,51.8,55.1,44.5,33.1,93,58,25,30.02,29.85,11,1,11,0.00
2013-5-12,75.6,60.4,46.9,46.4,39.8,30.5,82,50,26,30.02,29.83,8,2,11,0.00
2013-5-13,91.0,62.1,52.2,53.2,45.9,43.7,74,58,27,29.86,29.75,4,0,6,0.00
2013-10-30,75.9,71.5,68.7,70.3,69.0,68.4,99,92,81,29.81,29.68,12,2,12,0.00
2013-10-31,73.4,52.2,47.8,53.8,49.4,41.8,99,92,37,29.71,29.54,10,1,10,0.00
2013-11-1,55.2,46.0,41.2,44.0,41.0,39.0,95,83,67,29.85,29.70,4,0,4,0.00
2013-11-2,73.2,46.6,40.1,40.3,36.0,27.3,79,69,19,30.23,30.05,5,0,5,0.00
2013-11-3,69.3,53.5,44.8,42.6,37.0,32.1,68,54,32,30.08,29.77,17,4,17,0.00
2013-11-4,74.5,57.7,50.4,53.7,46.4,42.2,84,68,33,30.00,29.75,14,2,14,0.00
2013-11-5,61.3,55.9,41.4,61.1,54.8,39.8,99,96,85,30.01,29.78,12,2,12,0.00
2013-11-6,59.9,42.2,36.1,40.5,36.4,33.7,94,81,46,30.26,30.01,11,2,11,0.00
2013-11-7,74.7,47.3,32.7,43.5,36.7,32.2,99,73,25,30.37,30.22,4,0,4,0.00
2013-11-8,72.0,55.0,43.5,38.3,35.7,27.4,79,52,21,30.22,29.81,23,4,23,0.00
2013-11-9,78.3,55.3,42.6,45.9,40.6,36.6,84,61,27,30.21,29.93,1,0,1,0.00
2013-11-10,74.3,54.4,42.8,50.7,44.1,36.6,93,71,35,30.30,30.16,10,0,10,0.00
2013-11-11,59.0,49.5,30.6,53.9,44.6,19.1,92,83,63,30.56,30.09,11,2,11,0.00
2013-11-12,50.2,31.0,22.5,19.1,14.7,5.4,78,54,18,30.78,30.55,11,0,11,0.00
2013-11-13,57.6,37.9,23.9,25.1,19.2,14.7,78,50,25,30.59,30.10,14,2,14,0.00
2013-11-14,63.3,46.0,36.3,32.8,28.6,20.3,67,52,29,30.10,29.87,14,2,14,0.00
2013-11-15,68.9,51.2,38.3,49.5,40.7,31.6,87,69,39,29.89,29.61,14,1,14,0.00
2013-11-16,81.9,65.7,54.5,57.7,54.6,49.8,91,70,36,29.61,29.36,17,6,17,0.00
2013-11-17,74.3,59.1,48.2,50.7,28.8,4.2,69,37,10,30.05,29.36,16,2,16,0.00
2013-11-18,73.4,50.0,33.1,33.0,23.5,10.1,84,42,10,30.22,28.80,5,0,5,0.00
2013-11-19,67.1,53.2,45.1,35.5,29.1,25.8,58,41,24,30.15,29.82,20,4,20,0.00
2013-11-20,64.8,55.9,51.6,49.9,40.2,28.0,73,56,39,29.85,29.73,14,4,14,0.00
2013-11-21,55.0,36.3,25.9,53.2,34.0,20.6,99,92,71,30.41,29.83,16,6,16,0.00
2013-11-22,26.6,24.9,23.5,20.9,18.9,17.0,82,78,71,30.56,30.41,14,3,14,0.00
2013-11-23,41.0,32.1,21.4,20.8,16.8,11.4,66,53,39,30.66,30.50,9,0,9,0.00
2013-11-24,30.2,24.3,18.9,14.5,11.5,7.7,70,58,40,30.62,30.21,0,0,0,0.00
2013-11-25,38.3,30.9,26.1,28.5,22.3,13.0,92,71,53,30.21,30.11,1,0,1,0.00
2013-11-26,46.8,32.4,23.9,27.4,20.5,10.9,92,64,36,30.37,30.13,13,1,13,0.00
2013-11-27,45.9,28.9,14.9,20.4,14.5,9.4,81,57,27,30.37,30.10,6,0,6,0.00
2013-11-28,59.9,38.0,24.8,29.7,24.0,19.9,84,60,29,30.34,30.07,0,0,0,0.00
2013-11-29,62.4,41.8,27.0,32.8,26.9,20.4,83,58,29,30.34,30.09,13,0,13,0.00
2013-11-30,71.1,41.9,32.5,38.3,33.3,29.9,93,74,27,30.11,30.01,8,0,8,0.00
2013-12-1,72.9,44.7,30.0,42.4,34.9,29.0,98,74,27,30.05,29.81,0,0,0,0.00
2013-12-2,66.4,44.0,33.3,44.5,37.3,32.4,99,81,40,29.81,29.57,0,0,0,0.00
2013-12-3,71.8,42.3,35.1,49.5,39.6,34.6,99,92,38,29.55,29.42,0,0,0,0.00
2013-12-4,44.8,35.2,26.1,44.5,33.2,18.3,99,92,72,29.89,29.46,14,2,14,0.00